Inukjuak Airport
CYPH : rendu visible

Aérodrome :











RETROUVEZ-NOUS SUR...

 
LOGIN :

S'inscrire | Disclaimer

   EN    FR    IT 

 









Légende :    VFR   VFR Marginal   IFR   IFR Intensif   IFR Très Intensif
Visi : 
Plafond : 
>= 8 km
>= 3000ft
5 à 8 km
1000 à 3000 ft
1500m à 5 km
500 à 1000 ft
800 à 1500m
200 à 500 ft
< 800m
< 200 ft
Symboles :   Orages  Brouillard  Fortes neiges  Fortes précipitations  Vent > 20 kt






- Altitude de l'aérodrome : 83 ft
- Code IATA : YPH


CYPH - Inukjuak

DERNIER METAR :
  • 140833Z AUTO 24010G16KT 9SM FEW028 SCT036 BKN046 OVC055 M05/M09 A2957 RMK SLP019

METARs EXPIRÉS :
  • 140808Z AUTO 22010G15KT 6SM -SN FEW021 BKN035 OVC050 M06/M08 A2959 RMK SLP023
  • 140750Z AUTO 23012KT 5SM -SN FEW021 BKN036 OVC055 M05/M08 A2959 RMK SLP025
  • 140743Z AUTO 24012G17KT 8SM -SN FEW024 BKN038 OVC055 M05/M09 A2959 RMK SLP025
  • 140732Z AUTO 27019KT 2 1/2SM -SN FEW024 SCT033 BKN041 OVC049 M06/M08 A2959 RMK SLP024
  • 140710Z AUTO 25012KT 7SM -SN BKN034 OVC049 M05/M09 A2960 RMK SLP027
  • 140701Z AUTO 25013KT 5SM -SN FEW024 OVC030 M05/M09 A2960 RMK SLP029
  • 140643Z AUTO 24015KT 5SM -SN FEW021 BKN029 OVC060 M05/M08 A2961 RMK SLP032
  • 140633Z AUTO 25009G19KT 6SM -SN FEW020 BKN032 BKN045 OVC060 M05/M09 A2961 RMK SLP032
  • 140619Z AUTO 23012G19KT 5SM -SN FEW020 BKN033 BKN047 OVC055 M05/M08 A2962 RMK SLP033
  • 140604Z AUTO 25013KT 9SM OVC049 M05/M11 A2962 RMK SLP034

TAF TAF CYPH
Valide du 14 à 06h jusqu'au 14 à 18h UTC


140544Z 1406/1418 24012G22KT P6SM -SN FEW020 BKN050
TEMPO 1406/1418 2SM -SHSN OVC020
PROB30 1409/1418 1SM -SHSN VV009 RMK FCST BASED ON AUTO OBS. NXT FCST BY 141200Z



MET'MAP, la Météo Aéronautique d'un coup d'oeil ! - Copyright ORBIFLY Décembre 2007 - Disclaimer

ORBIFLY MET'MAP TEAM :

Programmation & Développement : Alexandra Zaïnal
Conception & Développement : Baudouin d'Aumeries
Co-Programmation & Développement : Marc-Olivier Méhu
Soutien technique & logistique : Manuel Goepfert

Contact : metmap@orbifly.com




SOURCES & CREDITS :

   NOAA       Earth
Advisory